Time;durP1;ratioP1;P1;durP2;ratioP2;P2;SDS_P1;SDS_P2;PMS_P1;PMS_P2;Temp;Humidity;BMP_temperature;BMP_pressure;BME280_temperature;BME280_humidity;BME280_pressure;Samples;Min_cycle;Max_cycle;Signal;HPM_P1;HPM_P2
2022/02/14 00:01:36;;;;;;;3.13;1.30;;;9.40;99.90;;;;;;4989483;28;20049;-67
2022/02/14 00:04:02;;;;;;;3.60;1.48;;;9.30;99.90;;;;;;4988369;28;20101;-67
2022/02/14 00:06:27;;;;;;;2.92;1.25;;;9.30;99.90;;;;;;4990089;28;20034;-68
2022/02/14 00:08:53;;;;;;;3.80;1.20;;;9.30;99.90;;;;;;4987141;28;20041;-67
2022/02/14 00:11:19;;;;;;;5.82;1.80;;;9.40;99.90;;;;;;4990251;28;20545;-67
2022/02/14 00:13:45;;;;;;;4.18;1.48;;;9.30;99.90;;;;;;4991009;28;20096;-67
2022/02/14 00:16:11;;;;;;;3.10;1.33;;;9.30;99.90;;;;;;4996325;28;20030;-67
2022/02/14 00:18:37;;;;;;;5.47;1.65;;;9.20;99.90;;;;;;4988522;28;20076;-67
2022/02/14 00:21:02;;;;;;;3.55;1.50;;;9.10;99.90;;;;;;4983645;28;20054;-67
2022/02/14 00:23:28;;;;;;;2.53;1.05;;;9.20;99.90;;;;;;4990675;28;20633;-67
2022/02/14 00:25:54;;;;;;;1.50;0.90;;;9.20;99.90;;;;;;5005999;28;20026;-67
2022/02/14 00:28:19;;;;;;;5.95;2.20;;;9.30;99.90;;;;;;4987993;28;20057;-67
2022/02/14 00:30:45;;;;;;;1.38;0.80;;;9.30;99.90;;;;;;4989312;28;20022;-67
2022/02/14 00:33:10;;;;;;;2.83;1.33;;;9.40;99.90;;;;;;5002214;28;20115;-67
2022/02/14 00:35:36;;;;;;;5.03;1.55;;;9.40;99.90;;;;;;4986395;28;20566;-67
2022/02/14 00:38:03;;;;;;;6.03;1.95;;;9.50;99.90;;;;;;4988203;28;20026;-67
2022/02/14 00:40:29;;;;;;;1.90;1.10;;;9.40;99.90;;;;;;4986928;28;20022;-67
2022/02/14 00:42:55;;;;;;;10.02;2.03;;;9.30;99.90;;;;;;4993069;28;20072;-67
2022/02/14 00:45:21;;;;;;;6.50;1.90;;;9.30;99.90;;;;;;4989388;28;20023;-67
2022/02/14 00:47:47;;;;;;;4.35;1.63;;;9.30;99.90;;;;;;4989246;28;20034;-67
2022/02/14 00:50:13;;;;;;;3.50;1.55;;;9.30;99.90;;;;;;4983777;28;20070;-67
2022/02/14 00:52:40;;;;;;;8.93;1.63;;;9.30;99.90;;;;;;4989181;28;20397;-67
2022/02/14 00:55:08;;;;;;;2.78;1.20;;;9.30;99.90;;;;;;4987824;28;20529;-67
2022/02/14 00:57:34;;;;;;;3.67;1.48;;;9.30;99.90;;;;;;5003063;28;20054;-67
2022/02/14 00:59:59;;;;;;;2.67;1.23;;;9.30;99.90;;;;;;4987724;28;20391;-67
2022/02/14 01:02:25;;;;;;;9.25;1.80;;;9.20;99.90;;;;;;4986609;28;20057;-67
2022/02/14 01:04:50;;;;;;;1.92;1.00;;;9.20;99.90;;;;;;4988815;28;20080;-67
2022/02/14 01:07:16;;;;;;;4.03;1.35;;;9.10;99.90;;;;;;4987247;28;20061;-67
2022/02/14 01:09:42;;;;;;;2.10;1.10;;;9.00;99.90;;;;;;4989610;28;20124;-67
2022/02/14 01:12:09;;;;;;;2.38;1.20;;;9.00;99.90;;;;;;4988795;28;20026;-67
2022/02/14 01:14:34;;;;;;;12.23;1.90;;;8.90;99.90;;;;;;4986784;28;20100;-67
2022/02/14 01:17:00;;;;;;;2.00;1.08;;;8.90;99.90;;;;;;4986117;28;20470;-67
2022/02/14 01:19:25;;;;;;;2.63;1.55;;;8.80;99.90;;;;;;4994509;28;20127;-67
2022/02/14 01:21:51;;;;;;;8.05;1.65;;;8.80;99.90;;;;;;4990663;28;20026;-69
2022/02/14 01:24:17;;;;;;;6.75;1.20;;;8.90;99.90;;;;;;4990089;28;20108;-67
2022/02/14 01:26:42;;;;;;;4.35;1.63;;;8.90;99.90;;;;;;4996908;28;20726;-67
2022/02/14 01:29:09;;;;;;;3.03;1.38;;;8.80;99.90;;;;;;5012170;28;20030;-67
2022/02/14 01:31:35;;;;;;;3.45;1.60;;;8.80;99.90;;;;;;4988719;28;20023;-67
2022/02/14 01:34:00;;;;;;;3.72;1.13;;;8.90;99.90;;;;;;4987549;28;20018;-68
2022/02/14 01:36:26;;;;;;;3.45;1.27;;;8.90;99.90;;;;;;4984896;28;20023;-67
2022/02/14 01:38:52;;;;;;;3.33;1.30;;;8.80;99.90;;;;;;5003330;28;20038;-68
2022/02/14 01:41:18;;;;;;;1.98;1.10;;;8.90;99.90;;;;;;4983290;28;20022;-67
2022/02/14 01:43:44;;;;;;;5.78;1.58;;;8.90;99.90;;;;;;4992524;28;20029;-68
2022/02/14 01:46:10;;;;;;;3.80;1.77;;;8.90;99.90;;;;;;4992896;28;20663;-67
2022/02/14 01:48:36;;;;;;;1.90;1.02;;;8.80;99.90;;;;;;4989544;28;20040;-67
2022/02/14 01:51:03;;;;;;;2.08;1.13;;;8.90;99.90;;;;;;4986143;28;20034;-68
2022/02/14 01:53:29;;;;;;;3.65;1.20;;;8.90;99.90;;;;;;4989246;28;20611;-67
2022/02/14 01:55:55;;;;;;;3.38;1.40;;;8.90;99.90;;;;;;4995222;28;20077;-67
2022/02/14 01:58:22;;;;;;;4.25;1.30;;;8.90;99.90;;;;;;4986533;28;20189;-67
2022/02/14 02:00:48;;;;;;;5.13;1.65;;;8.80;99.90;;;;;;4989733;28;20445;-67
2022/02/14 02:03:15;;;;;;;3.88;0.95;;;8.80;99.90;;;;;;4989255;28;20025;-67
2022/02/14 02:05:43;;;;;;;8.82;2.08;;;8.80;99.90;;;;;;4988251;28;20030;-67
2022/02/14 02:08:08;;;;;;;8.55;1.83;;;8.80;99.90;;;;;;4986491;28;20038;-67
2022/02/14 02:10:36;;;;;;;3.25;1.92;;;8.80;99.90;;;;;;4985219;28;20548;-68
2022/02/14 02:13:02;;;;;;;3.53;1.40;;;8.80;99.90;;;;;;4984812;28;20506;-67
2022/02/14 02:15:28;;;;;;;4.43;1.38;;;8.80;99.90;;;;;;4983025;28;20018;-68
2022/02/14 02:17:53;;;;;;;3.42;1.48;;;8.80;99.90;;;;;;4986237;28;20105;-67
2022/02/14 02:20:19;;;;;;;3.05;1.30;;;8.80;99.90;;;;;;4986116;28;20390;-67
2022/02/14 02:22:47;;;;;;;3.22;1.33;;;8.70;99.90;;;;;;4991860;28;20026;-67
2022/02/14 02:25:14;;;;;;;3.60;1.50;;;8.70;99.90;;;;;;4988914;28;20049;-67
2022/02/14 02:27:42;;;;;;;2.95;1.38;;;8.90;99.90;;;;;;4985549;28;20576;-67
2022/02/14 02:30:09;;;;;;;1.90;1.27;;;8.80;99.90;;;;;;4991191;28;20030;-67
2022/02/14 02:32:35;;;;;;;3.15;1.40;;;8.80;99.90;;;;;;4988630;28;20030;-68
2022/02/14 02:35:03;;;;;;;3.70;1.92;;;8.80;99.90;;;;;;4988698;28;20032;-67
2022/02/14 02:37:29;;;;;;;2.92;1.33;;;8.70;99.90;;;;;;4982652;28;20101;-67
2022/02/14 02:39:55;;;;;;;4.82;1.40;;;8.70;99.90;;;;;;4982966;28;20085;-67
2022/02/14 02:42:22;;;;;;;2.88;1.23;;;8.70;99.90;;;;;;4990008;28;20017;-67
2022/02/14 02:44:48;;;;;;;6.13;1.15;;;8.70;99.90;;;;;;4987508;28;20303;-67
2022/02/14 02:47:17;;;;;;;6.40;1.58;;;8.70;99.90;;;;;;4984992;28;20030;-67
2022/02/14 02:49:43;;;;;;;0.90;0.80;;;8.70;99.90;;;;;;4984797;28;20062;-67
2022/02/14 02:52:10;;;;;;;4.53;1.65;;;8.60;99.90;;;;;;4982091;28;20027;-67
2022/02/14 02:54:36;;;;;;;3.17;1.58;;;8.60;99.90;;;;;;4989552;28;20550;-67
2022/02/14 02:57:03;;;;;;;4.57;2.10;;;8.60;99.90;;;;;;4981846;28;20031;-67
2022/02/14 02:59:33;;;;;;;3.10;1.40;;;8.50;99.90;;;;;;4986301;28;20386;-67
2022/02/14 03:02:00;;;;;;;1.70;1.02;;;8.50;99.90;;;;;;4985890;28;20462;-67
2022/02/14 03:04:25;;;;;;;2.78;1.20;;;8.60;99.90;;;;;;4984910;28;20505;-68
2022/02/14 03:06:51;;;;;;;7.65;1.48;;;8.60;99.90;;;;;;4986841;28;20129;-67
2022/02/14 03:09:17;;;;;;;3.20;1.35;;;8.70;99.90;;;;;;4980338;28;20035;-68
2022/02/14 03:11:44;;;;;;;4.50;1.45;;;8.60;99.90;;;;;;5002899;28;20558;-67
2022/02/14 03:14:11;;;;;;;3.72;1.23;;;8.70;99.90;;;;;;4991612;28;20036;-67
2022/02/14 03:16:37;;;;;;;4.97;1.58;;;8.70;99.90;;;;;;4987803;28;20022;-67
2022/02/14 03:19:03;;;;;;;2.33;1.00;;;8.70;99.90;;;;;;4995265;28;20072;-68
2022/02/14 03:21:29;;;;;;;4.50;1.48;;;8.70;99.90;;;;;;4987114;28;20053;-68
2022/02/14 03:23:56;;;;;;;3.53;1.40;;;8.70;99.90;;;;;;4992514;28;20021;-67
2022/02/14 03:26:23;;;;;;;3.13;1.15;;;8.70;99.90;;;;;;4986600;28;20035;-67
2022/02/14 03:28:50;;;;;;;2.45;1.08;;;8.70;99.90;;;;;;4994825;28;20030;-67
2022/02/14 03:31:16;;;;;;;2.97;1.08;;;8.70;99.90;;;;;;4990279;28;20027;-68
2022/02/14 03:33:45;;;;;;;1.33;0.80;;;8.60;99.90;;;;;;4986899;28;20034;-67
2022/02/14 03:36:14;;;;;;;3.15;1.27;;;8.60;99.90;;;;;;4988213;28;20030;-67
2022/02/14 03:38:41;;;;;;;2.63;1.30;;;8.60;99.90;;;;;;4992826;28;20029;-67
2022/02/14 03:41:07;;;;;;;6.15;1.33;;;8.60;99.90;;;;;;4990475;28;20018;-67
2022/02/14 03:43:32;;;;;;;2.85;1.35;;;8.70;99.90;;;;;;4986208;28;20038;-67
2022/02/14 03:45:58;;;;;;;1.52;1.08;;;8.70;99.90;;;;;;5002837;28;20028;-67
2022/02/14 03:48:25;;;;;;;0.70;0.70;;;8.60;99.90;;;;;;4992085;28;20360;-67
2022/02/14 03:50:52;;;;;;;2.47;1.13;;;8.70;99.90;;;;;;4989524;28;20496;-67
2022/02/14 03:53:17;;;;;;;3.95;1.40;;;8.60;99.90;;;;;;4988673;28;20080;-67
2022/02/14 03:55:43;;;;;;;3.60;1.30;;;8.50;99.90;;;;;;4989409;28;20051;-68
2022/02/14 03:58:09;;;;;;;2.67;1.52;;;8.50;99.90;;;;;;4992552;28;20101;-67
2022/02/14 04:00:34;;;;;;;2.80;1.30;;;8.60;99.90;;;;;;4986482;28;20224;-67
2022/02/14 04:03:00;;;;;;;9.57;2.08;;;8.60;99.90;;;;;;4990608;28;20058;-68
2022/02/14 04:05:26;;;;;;;2.33;1.10;;;8.60;99.90;;;;;;4988023;28;20014;-68
2022/02/14 04:07:57;;;;;;;3.25;1.35;;;8.60;99.90;;;;;;4985721;28;20055;-67
2022/02/14 04:10:23;;;;;;;4.95;1.85;;;8.60;99.90;;;;;;4982763;28;20030;-68
2022/02/14 04:12:48;;;;;;;11.57;1.55;;;8.70;99.90;;;;;;4985483;28;20549;-67
2022/02/14 04:15:14;;;;;;;4.75;1.45;;;8.70;99.90;;;;;;4988641;28;20025;-68
2022/02/14 04:17:41;;;;;;;2.53;1.33;;;8.70;99.90;;;;;;4987210;28;20510;-68
2022/02/14 04:20:08;;;;;;;2.38;1.20;;;8.60;99.90;;;;;;4987106;28;20114;-67
2022/02/14 04:22:35;;;;;;;2.88;1.30;;;8.70;99.90;;;;;;4988064;28;20504;-67
2022/02/14 04:25:01;;;;;;;0.77;0.77;;;8.70;99.90;;;;;;4990970;28;20050;-67
2022/02/14 04:27:26;;;;;;;4.40;1.88;;;8.80;99.90;;;;;;4991554;28;20022;-67
2022/02/14 04:29:52;;;;;;;3.60;1.35;;;8.80;99.90;;;;;;4985065;28;20026;-68
2022/02/14 04:32:18;;;;;;;7.03;1.33;;;8.80;99.90;;;;;;4986759;28;20080;-68
2022/02/14 04:34:43;;;;;;;2.83;1.17;;;8.80;99.90;;;;;;4988544;28;20030;-68
2022/02/14 04:37:09;;;;;;;1.70;0.90;;;8.80;99.90;;;;;;4984796;28;20034;-68
2022/02/14 04:39:34;;;;;;;2.58;1.15;;;8.80;99.90;;;;;;4993625;28;20041;-68
2022/02/14 04:42:00;;;;;;;3.20;1.23;;;8.80;99.90;;;;;;4986667;28;20040;-68
2022/02/14 04:44:25;;;;;;;4.90;1.58;;;8.80;99.90;;;;;;4988953;28;20128;-68
2022/02/14 04:46:51;;;;;;;1.73;0.98;;;8.70;99.90;;;;;;4985052;28;20041;-68
2022/02/14 04:49:16;;;;;;;3.53;1.52;;;8.70;99.90;;;;;;4982486;28;20040;-68
2022/02/14 04:51:43;;;;;;;7.65;1.70;;;8.80;99.90;;;;;;4989194;28;20097;-68
2022/02/14 04:54:09;;;;;;;3.95;1.63;;;8.70;99.90;;;;;;4987656;28;20065;-68
2022/02/14 04:56:35;;;;;;;2.80;1.38;;;8.70;99.90;;;;;;4986571;28;20025;-68
2022/02/14 04:59:00;;;;;;;3.35;1.60;;;8.70;99.90;;;;;;4986265;28;20058;-68
2022/02/14 05:01:26;;;;;;;6.25;1.30;;;8.70;99.90;;;;;;4987233;28;20026;-68
2022/02/14 05:03:52;;;;;;;5.97;1.42;;;8.60;99.90;;;;;;4990037;28;20027;-68
2022/02/14 05:06:18;;;;;;;4.85;1.48;;;8.60;99.90;;;;;;4985275;28;20039;-68
2022/02/14 05:08:44;;;;;;;1.83;0.90;;;8.60;99.90;;;;;;4990786;28;20426;-68
2022/02/14 05:11:10;;;;;;;2.05;1.10;;;8.60;99.90;;;;;;4982908;28;20030;-69
2022/02/14 05:13:40;;;;;;;0.85;0.80;;;8.50;99.90;;;;;;4986386;28;20015;-68
2022/02/14 05:16:06;;;;;;;2.17;1.20;;;8.50;99.90;;;;;;4989477;28;20129;-68
2022/02/14 05:18:32;;;;;;;2.65;1.02;;;8.50;99.90;;;;;;4990472;28;20551;-68
2022/02/14 05:20:57;;;;;;;2.38;1.15;;;8.50;99.90;;;;;;4987948;28;20117;-68
2022/02/14 05:23:23;;;;;;;3.08;1.30;;;8.50;99.90;;;;;;4984394;28;20054;-68
2022/02/14 05:25:49;;;;;;;2.47;1.13;;;8.40;99.90;;;;;;4991522;28;20026;-68
2022/02/14 05:28:14;;;;;;;2.33;1.10;;;8.40;99.90;;;;;;4983710;28;20129;-68
2022/02/14 05:30:40;;;;;;;2.97;1.40;;;8.40;99.90;;;;;;4986192;28;20495;-68
2022/02/14 05:33:06;;;;;;;10.60;1.35;;;8.40;99.90;;;;;;4981247;28;20023;-68
2022/02/14 05:35:32;;;;;;;3.67;1.25;;;8.50;99.90;;;;;;4985803;28;20023;-68
2022/02/14 05:37:57;;;;;;;3.42;1.63;;;8.60;99.90;;;;;;4986826;28;20026;-68
2022/02/14 05:40:23;;;;;;;4.85;1.55;;;8.70;99.90;;;;;;4978887;28;20118;-68
2022/02/14 05:42:49;;;;;;;3.70;1.50;;;8.80;99.90;;;;;;4989915;28;20494;-68
2022/02/14 05:45:15;;;;;;;2.55;1.08;;;8.90;99.90;;;;;;4983694;28;20031;-68
2022/02/14 05:47:41;;;;;;;2.47;1.10;;;8.90;99.90;;;;;;4991301;28;20034;-68
2022/02/14 05:50:08;;;;;;;3.03;1.45;;;9.00;99.90;;;;;;4989398;28;20084;-68
2022/02/14 05:52:35;;;;;;;1.58;1.00;;;9.20;99.90;;;;;;4984151;28;20050;-68
2022/02/14 05:55:01;;;;;;;2.25;1.02;;;9.30;99.90;;;;;;4988822;28;20041;-68
2022/02/14 05:57:27;;;;;;;2.20;1.10;;;9.30;99.90;;;;;;4986622;28;20031;-68
2022/02/14 05:59:53;;;;;;;2.78;1.00;;;9.30;99.90;;;;;;4986446;28;20029;-68
2022/02/14 06:02:18;;;;;;;5.25;1.50;;;9.30;99.90;;;;;;4985416;28;20038;-68
2022/02/14 06:04:44;;;;;;;2.65;1.13;;;9.30;99.90;;;;;;4983599;28;20077;-68
2022/02/14 06:07:09;;;;;;;2.63;1.48;;;9.20;99.90;;;;;;4985069;28;20054;-68
2022/02/14 06:09:35;;;;;;;5.00;1.35;;;9.20;99.90;;;;;;4981114;28;20058;-68
2022/02/14 06:12:01;;;;;;;3.08;0.82;;;9.20;99.90;;;;;;4987727;28;20034;-68
2022/02/14 06:14:27;;;;;;;5.13;2.17;;;9.20;99.90;;;;;;4984667;28;20548;-68
2022/02/14 06:16:53;;;;;;;1.45;0.90;;;9.10;99.90;;;;;;4984197;28;20121;-68
2022/02/14 06:19:21;;;;;;;3.22;1.20;;;9.10;99.90;;;;;;4984025;28;20092;-68
2022/02/14 06:21:47;;;;;;;1.38;0.93;;;9.10;99.90;;;;;;4984117;28;20046;-68
2022/02/14 06:24:13;;;;;;;3.83;1.15;;;9.10;99.90;;;;;;4986467;28;20059;-68
2022/02/14 06:26:38;;;;;;;2.22;1.33;;;9.10;99.90;;;;;;4984872;28;20034;-68
2022/02/14 06:29:04;;;;;;;2.05;1.13;;;9.20;99.90;;;;;;4987075;28;20030;-69
2022/02/14 06:31:31;;;;;;;5.97;1.52;;;9.10;99.90;;;;;;4982219;28;20033;-68
2022/02/14 06:33:57;;;;;;;8.48;1.52;;;9.20;99.90;;;;;;4987091;28;20392;-68
2022/02/14 06:36:23;;;;;;;1.55;1.10;;;9.20;99.90;;;;;;4999295;28;20014;-68
2022/02/14 06:38:56;;;;;;;3.22;0.88;;;9.20;99.90;;;;;;4985156;28;20023;-68
2022/02/14 06:41:23;;;;;;;1.90;1.13;;;9.30;99.90;;;;;;4988430;28;20026;-68
2022/02/14 06:43:49;;;;;;;1.70;1.05;;;9.30;99.90;;;;;;4984805;28;20391;-68
2022/02/14 06:46:15;;;;;;;2.83;1.20;;;9.30;99.90;;;;;;4989539;28;20050;-68
2022/02/14 06:48:41;;;;;;;3.72;1.52;;;9.20;99.90;;;;;;4992347;28;20181;-68
2022/02/14 06:51:06;;;;;;;4.22;1.25;;;9.10;99.90;;;;;;4989063;28;20031;-68
2022/02/14 06:53:32;;;;;;;2.42;1.75;;;9.10;99.90;;;;;;4989092;28;20097;-69
2022/02/14 06:56:00;;;;;;;1.77;0.98;;;9.10;99.90;;;;;;4983323;28;20081;-68
2022/02/14 06:58:26;;;;;;;2.58;1.30;;;9.10;99.90;;;;;;4993027;28;20018;-68
2022/02/14 07:00:52;;;;;;;2.85;1.40;;;9.00;99.90;;;;;;4990375;28;20019;-68
2022/02/14 07:03:18;;;;;;;0.75;0.63;;;8.90;99.90;;;;;;4990574;28;20034;-68
2022/02/14 07:05:44;;;;;;;3.03;1.02;;;8.90;99.90;;;;;;4990814;28;20029;-68
2022/02/14 07:08:09;;;;;;;3.72;1.40;;;8.80;99.90;;;;;;4990422;28;20385;-68
2022/02/14 07:10:35;;;;;;;2.00;1.05;;;8.90;99.90;;;;;;4991790;28;20449;-68
2022/02/14 07:13:01;;;;;;;3.85;1.05;;;8.90;99.90;;;;;;4985532;28;20034;-68
2022/02/14 07:15:27;;;;;;;2.05;1.08;;;8.90;99.90;;;;;;5006331;28;20457;-68
2022/02/14 07:17:53;;;;;;;5.53;1.75;;;;;;;;;;4991033;28;20086;-68
2022/02/14 07:20:19;;;;;;;2.50;1.10;;;8.90;99.90;;;;;;4990468;28;20030;-68
2022/02/14 07:22:45;;;;;;;2.10;1.00;;;8.80;99.90;;;;;;4989998;28;20102;-68
2022/02/14 07:25:11;;;;;;;2.35;1.17;;;8.80;99.90;;;;;;4992904;28;20034;-68
2022/02/14 07:27:38;;;;;;;1.52;0.90;;;8.80;99.90;;;;;;4993543;28;20022;-68
2022/02/14 07:30:07;;;;;;;2.95;1.27;;;8.90;99.90;;;;;;4985852;28;20428;-68
2022/02/14 07:32:33;;;;;;;2.97;1.38;;;8.90;99.90;;;;;;4992136;28;20324;-68
2022/02/14 07:34:59;;;;;;;2.42;1.15;;;8.90;99.90;;;;;;4995164;28;20101;-68
2022/02/14 07:37:25;;;;;;;3.53;1.27;;;9.00;99.90;;;;;;5003383;28;20034;-68
2022/02/14 07:39:52;;;;;;;4.07;1.23;;;9.00;99.90;;;;;;4988338;28;20146;-68
2022/02/14 07:42:18;;;;;;;1.70;1.00;;;9.10;99.90;;;;;;4994943;28;20029;-68
2022/02/14 07:44:44;;;;;;;7.03;1.38;;;9.20;99.90;;;;;;4989304;28;20027;-68
2022/02/14 07:47:10;;;;;;;3.40;1.02;;;9.20;99.90;;;;;;4995719;28;20044;-68
2022/02/14 07:49:35;;;;;;;4.13;1.20;;;9.30;99.90;;;;;;4989774;28;20097;-68
2022/02/14 07:52:01;;;;;;;2.08;0.90;;;9.40;99.90;;;;;;5010460;28;20023;-68
2022/02/14 07:54:27;;;;;;;3.85;1.35;;;9.50;99.90;;;;;;4987838;28;20026;-68
2022/02/14 07:56:53;;;;;;;1.65;0.88;;;9.60;99.90;;;;;;4989297;28;20057;-68
2022/02/14 07:59:18;;;;;;;2.88;1.30;;;9.70;99.90;;;;;;4992077;28;20377;-68
2022/02/14 08:01:44;;;;;;;2.35;1.08;;;9.80;99.90;;;;;;4989829;28;20034;-68
2022/02/14 08:04:10;;;;;;;1.95;1.20;;;9.80;99.90;;;;;;4992761;28;20018;-68
2022/02/14 08:06:37;;;;;;;2.10;1.00;;;9.90;99.90;;;;;;4987914;28;20027;-68
2022/02/14 08:09:07;;;;;;;2.15;1.20;;;9.90;99.90;;;;;;4997634;28;20398;-68
2022/02/14 08:11:33;;;;;;;1.33;0.80;;;9.90;99.90;;;;;;4988123;28;20027;-68
2022/02/14 08:13:59;;;;;;;2.85;1.20;;;9.90;99.90;;;;;;4993223;28;20018;-68
2022/02/14 08:16:25;;;;;;;1.98;1.02;;;9.90;99.90;;;;;;4986135;28;20027;-68
2022/02/14 08:18:52;;;;;;;1.77;1.02;;;10.00;99.90;;;;;;4990074;28;20510;-68
2022/02/14 08:21:17;;;;;;;1.02;0.88;;;10.00;99.90;;;;;;4992496;28;20022;-68
2022/02/14 08:23:43;;;;;;;3.53;1.17;;;10.10;99.90;;;;;;4992722;28;20034;-68
2022/02/14 08:26:09;;;;;;;3.13;1.10;;;10.10;99.90;;;;;;4990635;28;20026;-68
2022/02/14 08:28:34;;;;;;;4.25;1.85;;;10.20;99.90;;;;;;4990668;28;20106;-68
2022/02/14 08:31:01;;;;;;;2.63;1.60;;;10.30;99.90;;;;;;4993371;28;20048;-68
2022/02/14 08:33:26;;;;;;;1.25;0.70;;;10.20;99.90;;;;;;4986586;28;20019;-68
2022/02/14 08:35:52;;;;;;;2.35;1.05;;;10.30;99.90;;;;;;4993164;28;20129;-68
2022/02/14 08:38:19;;;;;;;2.22;1.10;;;10.30;99.90;;;;;;4988058;28;20027;-68
2022/02/14 08:40:45;;;;;;;3.35;1.02;;;10.40;99.90;;;;;;4983542;28;20026;-68
2022/02/14 08:43:10;;;;;;;2.30;1.08;;;10.40;99.90;;;;;;4989201;28;20048;-68
2022/02/14 08:45:36;;;;;;;3.75;1.45;;;10.40;99.90;;;;;;4986308;28;20112;-68
2022/02/14 08:48:02;;;;;;;2.58;1.00;;;10.40;99.90;;;;;;4987825;28;20034;-68
2022/02/14 08:50:29;;;;;;;1.75;1.00;;;10.50;99.90;;;;;;4984681;28;20138;-68
2022/02/14 08:52:56;;;;;;;1.38;0.85;;;10.50;99.90;;;;;;4990949;28;20018;-68
2022/02/14 08:55:21;;;;;;;2.03;1.13;;;10.50;99.90;;;;;;4988356;28;20114;-68
2022/02/14 08:57:47;;;;;;;3.28;1.08;;;10.50;99.90;;;;;;4990757;28;20114;-68
2022/02/14 09:00:14;;;;;;;2.92;1.25;;;10.60;99.90;;;;;;4988287;28;20052;-68
2022/02/14 09:02:39;;;;;;;4.35;0.98;;;10.70;99.90;;;;;;4986499;28;20504;-68
2022/02/14 09:05:06;;;;;;;2.50;1.13;;;10.80;99.90;;;;;;5002593;28;20050;-68
2022/02/14 09:07:32;;;;;;;1.70;1.05;;;10.80;99.90;;;;;;4986861;28;20057;-68
2022/02/14 09:09:57;;;;;;;1.42;0.80;;;10.80;99.90;;;;;;4988723;28;20045;-68
2022/02/14 09:12:23;;;;;;;2.92;1.27;;;10.90;99.90;;;;;;4999231;28;20018;-68
2022/02/14 09:14:50;;;;;;;2.88;1.20;;;10.90;99.90;;;;;;5001320;28;20490;-68
2022/02/14 09:17:16;;;;;;;2.63;1.15;;;11.00;99.90;;;;;;5000748;28;20026;-68
2022/02/14 09:19:42;;;;;;;2.55;1.00;;;11.00;99.90;;;;;;4985372;28;20133;-69
2022/02/14 09:22:09;;;;;;;1.85;1.00;;;11.10;99.90;;;;;;4986652;28;20095;-69
2022/02/14 09:24:35;;;;;;;3.88;0.90;;;11.20;99.90;;;;;;4991347;28;20054;-68
2022/02/14 09:27:02;;;;;;;1.98;0.93;;;11.20;99.90;;;;;;4995275;28;20394;-68
2022/02/14 09:29:28;;;;;;;2.63;1.00;;;11.20;99.90;;;;;;5000767;28;20034;-68
2022/02/14 09:31:54;;;;;;;3.53;1.50;;;11.10;99.90;;;;;;4998874;28;20049;-68
2022/02/14 09:34:21;;;;;;;2.70;1.10;;;11.10;99.90;;;;;;4999028;28;20026;-68
2022/02/14 09:36:47;;;;;;;2.85;1.10;;;11.10;99.90;;;;;;5002816;28;20429;-68
2022/02/14 09:39:13;;;;;;;2.40;1.00;;;11.10;99.90;;;;;;4997035;28;20109;-68
2022/02/14 09:41:39;;;;;;;2.25;1.02;;;11.10;99.90;;;;;;4996163;28;20033;-69
2022/02/14 09:44:06;;;;;;;2.47;1.23;;;11.20;99.90;;;;;;4995815;28;20375;-69
2022/02/14 09:46:34;;;;;;;1.95;1.00;;;11.20;99.90;;;;;;4999238;28;20362;-70
2022/02/14 09:49:02;;;;;;;1.52;0.82;;;11.30;99.90;;;;;;4999275;28;20386;-70
2022/02/14 09:51:29;;;;;;;7.05;1.10;;;11.30;99.90;;;;;;4999940;28;20021;-70
2022/02/14 09:53:56;;;;;;;4.10;1.45;;;11.30;99.90;;;;;;5000079;28;20117;-70
2022/02/14 09:56:22;;;;;;;3.85;1.20;;;11.40;99.90;;;;;;4995530;28;20034;-70
2022/02/14 09:58:49;;;;;;;1.02;0.80;;;11.40;99.90;;;;;;5000237;28;20056;-70
2022/02/14 10:01:15;;;;;;;2.38;1.05;;;11.40;99.90;;;;;;5000023;28;20161;-70
2022/02/14 10:04:13;;;;;;;1.95;0.95;;;11.30;99.90;;;;;;5001612;28;20406;-70
2022/02/14 10:06:40;;;;;;;2.10;1.23;;;11.30;99.90;;;;;;4997558;28;20363;-70
2022/02/14 10:09:11;;;;;;;2.92;1.17;;;11.30;99.90;;;;;;5000061;28;20041;-70
2022/02/14 10:11:42;;;;;;;2.67;1.20;;;11.30;99.90;;;;;;4994965;28;20038;-70
2022/02/14 10:14:19;;;;;;;1.25;0.85;;;11.40;99.90;;;;;;4999307;28;20464;-70
2022/02/14 10:17:19;;;;;;;1.40;0.90;;;11.30;99.90;;;;;;4996016;28;20034;-70
2022/02/14 10:19:59;;;;;;;4.40;1.23;;;11.30;99.90;;;;;;4953217;28;20042;-70
2022/02/14 10:22:25;;;;;;;1.73;0.93;;;11.20;99.90;;;;;;4983174;28;20031;-70
2022/02/14 10:24:51;;;;;;;1.00;0.73;;;11.30;99.90;;;;;;4993340;28;20058;-70
2022/02/14 10:27:18;;;;;;;4.00;1.20;;;11.30;99.90;;;;;;4986508;28;20058;-70
2022/02/14 10:29:44;;;;;;;3.60;1.15;;;11.40;99.90;;;;;;4980722;28;20093;-70
2022/02/14 10:32:24;;;;;;;2.50;1.00;;;11.40;99.90;;;;;;4990733;28;20018;-70
2022/02/14 10:34:53;;;;;;;2.17;1.13;;;11.40;99.90;;;;;;4997139;28;20049;-70
2022/02/14 10:37:19;;;;;;;2.42;1.10;;;11.40;99.90;;;;;;4994579;28;20068;-70
2022/02/14 10:39:46;;;;;;;3.58;1.17;;;11.40;99.90;;;;;;4997573;28;20030;-70
2022/02/14 10:42:14;;;;;;;5.50;1.00;;;11.40;99.90;;;;;;4982375;28;20046;-70
2022/02/14 10:47:33;;;;;;;2.38;1.08;;;11.60;99.90;;;;;;4987068;28;20033;-70
2022/02/14 10:50:01;;;;;;;2.33;0.93;;;11.60;99.90;;;;;;4997818;28;20075;-70
2022/02/14 10:52:38;;;;;;;2.00;1.10;;;11.60;99.90;;;;;;4993834;28;20053;-70
2022/02/14 10:55:05;;;;;;;2.15;0.93;;;11.70;99.90;;;;;;4992901;28;20028;-70
2022/02/14 10:57:35;;;;;;;2.65;1.02;;;11.70;99.90;;;;;;4997896;28;20026;-70
2022/02/14 11:00:10;;;;;;;0.80;0.80;;;11.80;99.90;;;;;;4992436;28;20037;-70
2022/02/14 11:02:37;;;;;;;3.55;1.20;;;11.80;99.90;;;;;;4993996;28;20117;-70
2022/02/14 11:05:04;;;;;;;3.47;1.27;;;11.70;99.90;;;;;;4980800;28;20037;-70
2022/02/14 11:07:31;;;;;;;2.10;1.02;;;11.60;99.90;;;;;;4991495;28;20438;-70
2022/02/14 11:10:01;;;;;;;2.05;1.05;;;11.40;99.90;;;;;;4994026;28;20026;-70
2022/02/14 11:12:34;;;;;;;3.20;1.20;;;11.20;99.90;;;;;;4995716;28;20368;-70
2022/02/14 11:15:05;;;;;;;2.33;1.13;;;11.10;99.90;;;;;;4982049;28;20030;-70
2022/02/14 11:17:33;;;;;;;2.58;1.00;;;11.10;99.90;;;;;;4982203;28;20034;-70
2022/02/14 11:20:01;;;;;;;2.15;1.13;;;11.20;99.90;;;;;;4984225;28;20042;-70
2022/02/14 11:22:29;;;;;;;0.88;0.77;;;11.50;99.90;;;;;;4981866;28;20511;-70
2022/02/14 11:25:09;;;;;;;1.88;0.95;;;11.50;99.90;;;;;;4984153;28;20027;-70
2022/02/14 11:27:53;;;;;;;2.00;0.90;;;11.70;99.90;;;;;;4986442;28;20026;-68
2022/02/14 11:30:19;;;;;;;0.80;0.70;;;11.70;99.90;;;;;;4973319;28;20274;-68
2022/02/14 11:33:09;;;;;;;2.42;0.98;;;11.80;99.90;;;;;;5001469;28;20459;-68
2022/02/14 11:35:39;;;;;;;0.85;0.70;;;11.90;99.90;;;;;;5001059;28;20577;-68
2022/02/14 11:38:06;;;;;;;2.60;1.13;;;11.90;99.90;;;;;;4995904;28;20026;-68
2022/02/14 11:40:41;;;;;;;1.10;0.70;;;11.90;99.90;;;;;;4988828;28;20018;-68
2022/02/14 11:43:15;;;;;;;1.10;0.90;;;11.90;99.90;;;;;;4996338;28;20030;-68
2022/02/14 11:45:42;;;;;;;2.17;1.02;;;11.90;99.90;;;;;;4987493;28;20024;-68
2022/02/14 11:48:25;;;;;;;1.15;0.82;;;11.80;99.90;;;;;;4990053;28;20040;-68
2022/02/14 11:51:10;;;;;;;1.77;0.80;;;11.80;99.90;;;;;;4985439;28;20034;-68
2022/02/14 11:53:41;;;;;;;0.88;0.70;;;11.80;99.90;;;;;;4992188;28;20030;-68
2022/02/14 11:56:22;;;;;;;2.33;0.90;;;11.80;99.90;;;;;;4988280;28;20030;-68
2022/02/14 11:59:11;;;;;;;1.48;0.80;;;11.70;99.90;;;;;;4990682;28;20037;-68
2022/02/14 12:01:59;;;;;;;0.77;0.70;;;11.60;99.90;;;;;;4987240;28;20077;-68
2022/02/14 12:04:37;;;;;;;1.23;0.80;;;11.50;99.90;;;;;;4991405;28;20019;-68
2022/02/14 12:07:32;;;;;;;0.70;0.70;;;11.50;99.90;;;;;;5004409;28;20082;-68
2022/02/14 12:10:01;;;;;;;0.98;0.73;;;11.60;99.90;;;;;;4990081;28;20030;-68
2022/02/14 12:12:39;;;;;;;1.85;1.00;;;11.60;99.90;;;;;;4989801;28;20024;-68
2022/02/14 12:21:11;;;;;;;1.45;0.77;;;12.60;99.90;;;;;;4987812;28;20037;-68
2022/02/14 12:23:45;;;;;;;3.30;0.82;;;13.40;99.90;;;;;;4991386;28;20026;-68
2022/02/14 12:26:14;;;;;;;0.73;0.70;;;13.80;99.90;;;;;;4992346;28;20034;-68
2022/02/14 12:28:43;;;;;;;1.77;0.70;;;13.40;99.90;;;;;;4984260;28;20027;-68
2022/02/14 12:31:09;;;;;;;2.88;1.00;;;12.80;99.90;;;;;;4988787;28;20265;-68
2022/02/14 12:33:37;;;;;;;2.85;0.95;;;12.80;99.90;;;;;;4987577;28;20457;-68
2022/02/14 12:36:09;;;;;;;1.73;0.80;;;13.00;99.90;;;;;;4985795;28;20022;-68
2022/02/14 12:38:38;;;;;;;1.27;1.00;;;12.90;99.90;;;;;;4997135;28;20034;-68
2022/02/14 12:41:09;;;;;;;0.85;0.75;;;12.50;99.90;;;;;;4990745;28;20030;-68
2022/02/14 12:43:40;;;;;;;1.35;0.90;;;12.50;99.90;;;;;;4992339;28;20486;-68
2022/02/14 12:46:06;;;;;;;1.20;0.75;;;12.20;99.90;;;;;;4990933;28;20061;-68
2022/02/14 12:48:37;;;;;;;2.40;0.85;;;12.00;99.90;;;;;;4993352;28;20061;-68
2022/02/14 12:51:08;;;;;;;3.28;1.35;;;11.90;99.90;;;;;;4985983;28;20548;-68
2022/02/14 12:53:36;;;;;;;2.38;1.10;;;11.80;99.90;;;;;;4989144;28;20129;-68
2022/02/14 12:56:18;;;;;;;1.08;0.77;;;11.70;99.90;;;;;;4986891;28;20018;-68
2022/02/14 12:58:59;;;;;;;2.42;1.00;;;11.70;99.90;;;;;;4984090;28;20601;-68
2022/02/14 13:01:30;;;;;;;2.30;1.02;;;11.50;99.90;;;;;;4996991;28;20019;-68
2022/02/14 13:03:58;;;;;;;3.80;1.00;;;12.40;99.90;;;;;;4987276;28;20541;-68